createdAt,value
2022-07-26T00:01:22.875Z,79.12
2022-07-26T00:03:52.035Z,79.85
2022-07-26T00:06:20.446Z,79.87
2022-07-26T00:08:49.031Z,80.76
2022-07-26T00:11:17.650Z,80.26
2022-07-26T00:13:46.382Z,80.00
2022-07-26T00:16:14.898Z,80.43
2022-07-26T00:18:43.460Z,81.19
2022-07-26T00:21:11.875Z,81.48
2022-07-26T00:23:40.245Z,81.73
2022-07-26T00:26:08.601Z,82.34
2022-07-26T00:28:36.962Z,82.13
2022-07-26T00:31:05.414Z,82.33
2022-07-26T00:33:33.796Z,82.70
2022-07-26T00:36:02.176Z,82.86
2022-07-26T00:38:30.342Z,83.20
2022-07-26T00:40:58.970Z,84.82
2022-07-26T00:43:27.236Z,85.11
2022-07-26T00:45:55.584Z,85.85
2022-07-26T00:48:23.878Z,87.10
2022-07-26T00:50:55.099Z,88.00
2022-07-26T00:53:24.041Z,89.41
2022-07-26T00:55:53.304Z,88.59
2022-07-26T00:58:21.536Z,88.62
2022-07-26T01:00:49.954Z,89.23
2022-07-26T01:03:18.112Z,89.87
2022-07-26T01:05:46.634Z,89.77
2022-07-26T01:08:14.838Z,89.92
2022-07-26T01:10:43.869Z,90.06
2022-07-26T01:13:13.281Z,89.77
2022-07-26T01:15:41.541Z,89.96
2022-07-26T01:18:09.769Z,90.46
2022-07-26T01:20:38.197Z,91.59
2022-07-26T01:23:08.189Z,94.64
2022-07-26T01:25:43.186Z,94.18
2022-07-26T01:28:20.191Z,94.72
2022-07-26T01:30:49.636Z,93.71
2022-07-26T01:33:18.004Z,93.33
2022-07-26T01:35:46.320Z,93.08
2022-07-26T01:38:14.635Z,93.95
2022-07-26T01:40:42.812Z,94.45
2022-07-26T01:43:11.037Z,95.92
2022-07-26T01:45:39.330Z,97.28
2022-07-26T01:48:08.609Z,97.44
2022-07-26T01:50:39.063Z,97.29
2022-07-26T01:53:07.345Z,98.08
2022-07-26T01:55:36.219Z,98.55
2022-07-26T01:58:06.178Z,98.99
2022-07-26T02:00:34.796Z,100.00
2022-07-26T02:03:03.061Z,100.00
2022-07-26T02:05:31.369Z,100.00
2022-07-26T02:08:00.071Z,100.00
2022-07-26T02:10:57.660Z,100.00
2022-07-26T02:13:26.094Z,100.00
2022-07-26T02:15:54.320Z,98.98
2022-07-26T02:18:22.505Z,99.23
2022-07-26T02:20:50.568Z,97.33
2022-07-26T02:23:18.922Z,96.64
2022-07-26T02:25:47.910Z,96.82
2022-07-26T02:28:17.294Z,95.57
2022-07-26T02:30:46.960Z,95.44
2022-07-26T02:33:16.302Z,95.29
2022-07-26T02:35:46.949Z,93.92
2022-07-26T02:38:16.508Z,93.92
2022-07-26T02:40:44.973Z,93.12
2022-07-26T02:43:13.222Z,92.81
2022-07-26T02:45:41.376Z,94.18
2022-07-26T02:48:09.641Z,94.05
2022-07-26T02:50:37.940Z,95.46
2022-07-26T02:53:06.201Z,96.01
2022-07-26T02:55:34.460Z,98.00
2022-07-26T02:58:02.602Z,98.12
2022-07-26T03:00:31.171Z,97.29
2022-07-26T03:03:00.936Z,96.30
2022-07-26T03:05:29.263Z,96.14
2022-07-26T03:07:57.420Z,98.49
2022-07-26T03:10:25.623Z,97.65
2022-07-26T03:12:53.790Z,96.44
2022-07-26T03:15:22.088Z,97.72
2022-07-26T03:17:50.344Z,96.50
2022-07-26T03:20:18.514Z,95.39
2022-07-26T03:22:46.629Z,94.95
2022-07-26T03:25:15.259Z,95.10
2022-07-26T03:27:43.639Z,94.84
2022-07-26T03:30:12.731Z,94.41
2022-07-26T03:32:41.362Z,94.74
2022-07-26T03:35:09.832Z,95.80
2022-07-26T03:37:44.748Z,96.83
2022-07-26T03:40:18.255Z,97.61
2022-07-26T03:42:48.449Z,97.38
2022-07-26T03:45:17.901Z,99.01
2022-07-26T03:47:46.572Z,100.00
2022-07-26T03:50:14.755Z,100.00
2022-07-26T03:52:43.031Z,100.00
2022-07-26T03:55:30.167Z,100.00
2022-07-26T03:57:58.750Z,100.00
2022-07-26T04:00:26.984Z,100.00
2022-07-26T04:02:55.280Z,100.00
2022-07-26T04:05:26.060Z,100.00
2022-07-26T04:07:55.921Z,100.00
2022-07-26T04:10:24.690Z,100.00
2022-07-26T04:12:52.814Z,100.00
2022-07-26T04:15:21.569Z,100.00
2022-07-26T04:17:50.947Z,100.00
2022-07-26T04:20:20.077Z,100.00
2022-07-26T04:22:48.635Z,100.00
2022-07-26T04:25:17.160Z,100.00
2022-07-26T04:27:45.420Z,100.00
2022-07-26T04:30:15.457Z,100.00
2022-07-26T04:32:45.906Z,100.00
2022-07-26T04:35:16.604Z,100.00
2022-07-26T04:37:45.985Z,100.00
2022-07-26T04:40:21.846Z,100.00
2022-07-26T04:42:52.436Z,100.00
2022-07-26T04:45:20.965Z,100.00
2022-07-26T04:47:50.878Z,100.00
2022-07-26T04:50:20.518Z,100.00
2022-07-26T04:52:50.585Z,100.00
2022-07-26T04:55:19.543Z,100.00
2022-07-26T04:57:48.081Z,100.00
2022-07-26T05:00:23.313Z,100.00
2022-07-26T05:02:56.062Z,100.00
2022-07-26T05:05:27.401Z,100.00
2022-07-26T05:07:58.587Z,100.00
2022-07-26T05:10:38.641Z,100.00
2022-07-26T05:13:07.724Z,100.00
2022-07-26T05:15:39.410Z,100.00
2022-07-26T05:18:13.664Z,100.00
2022-07-26T05:20:41.975Z,100.00
2022-07-26T05:23:10.145Z,100.00
2022-07-26T05:25:39.199Z,100.00
2022-07-26T05:28:07.405Z,100.00
2022-07-26T05:30:35.748Z,100.00
2022-07-26T05:33:04.112Z,100.00
2022-07-26T05:35:32.269Z,100.00
2022-07-26T05:38:00.640Z,100.00
2022-07-26T05:40:28.969Z,100.00
2022-07-26T05:42:57.248Z,100.00
2022-07-26T05:45:25.433Z,98.31
2022-07-26T05:47:53.764Z,97.27
2022-07-26T05:50:21.997Z,95.39
2022-07-26T05:52:50.189Z,93.88
2022-07-26T05:55:18.367Z,93.07
2022-07-26T05:57:50.009Z,93.40
2022-07-26T06:00:19.677Z,93.00
2022-07-26T06:02:48.531Z,92.52
2022-07-26T06:05:16.839Z,91.96
2022-07-26T06:07:45.039Z,91.94
2022-07-26T06:10:13.386Z,92.26
2022-07-26T06:12:41.684Z,91.24
2022-07-26T06:15:15.110Z,90.59
2022-07-26T06:17:44.167Z,89.53
2022-07-26T06:20:12.380Z,89.50
2022-07-26T06:22:40.716Z,88.87
2022-07-26T06:25:09.496Z,89.16
2022-07-26T06:27:37.981Z,87.23
2022-07-26T06:30:07.618Z,86.82
2022-07-26T06:32:35.830Z,86.58
2022-07-26T06:35:04.256Z,86.55
2022-07-26T06:37:32.680Z,86.63
2022-07-26T06:40:00.872Z,85.57
2022-07-26T06:42:29.122Z,85.72
2022-07-26T06:44:57.521Z,83.97
2022-07-26T06:47:26.588Z,84.78
2022-07-26T06:49:54.912Z,85.33
2022-07-26T06:52:23.153Z,83.68
2022-07-26T06:54:51.386Z,84.04
2022-07-26T06:57:19.768Z,83.09
2022-07-26T06:59:48.262Z,82.39
2022-07-26T07:02:16.777Z,83.91
2022-07-26T07:04:45.257Z,82.46
2022-07-26T07:07:13.502Z,83.44
2022-07-26T07:09:42.784Z,82.24
2022-07-26T07:12:11.482Z,82.41
2022-07-26T07:14:40.010Z,82.58
2022-07-26T07:17:13.006Z,81.44
2022-07-26T07:19:42.302Z,81.35
2022-07-26T07:22:12.650Z,81.84
2022-07-26T07:24:42.129Z,81.00
2022-07-26T07:27:10.808Z,80.70
2022-07-26T07:29:41.227Z,79.78
2022-07-26T07:32:18.034Z,79.72
2022-07-26T07:34:48.055Z,79.85
2022-07-26T07:37:18.186Z,79.04
2022-07-26T07:39:50.306Z,79.41
2022-07-26T07:42:19.896Z,78.61
2022-07-26T07:45:06.814Z,78.18
2022-07-26T07:47:35.589Z,78.17
2022-07-26T07:50:04.003Z,78.40
2022-07-26T07:52:32.193Z,78.78
2022-07-26T07:55:36.062Z,78.91
2022-07-26T07:57:48.923Z,77.30
2022-07-26T08:00:19.546Z,78.63
2022-07-26T08:02:55.932Z,77.08
2022-07-26T08:05:24.238Z,76.24
2022-07-26T08:07:53.239Z,76.15
2022-07-26T08:10:21.563Z,76.55
2022-07-26T08:12:51.402Z,75.11
2022-07-26T08:15:21.388Z,74.03
2022-07-26T08:17:53.847Z,73.29
2022-07-26T08:20:24.957Z,74.90
2022-07-26T08:22:53.806Z,73.44
2022-07-26T08:25:22.096Z,73.00
2022-07-26T08:28:03.095Z,72.50
2022-07-26T08:30:32.923Z,73.34
2022-07-26T08:33:01.690Z,72.53
2022-07-26T08:35:30.028Z,72.63
2022-07-26T08:37:58.635Z,73.68
2022-07-26T08:40:26.992Z,74.04
2022-07-26T08:42:57.590Z,73.20
2022-07-26T08:45:34.137Z,74.38
2022-07-26T08:48:18.770Z,74.52
2022-07-26T08:50:48.210Z,74.21
2022-07-26T08:53:16.921Z,72.25
2022-07-26T08:56:06.051Z,71.08
2022-07-26T08:58:36.570Z,69.52
2022-07-26T09:01:13.043Z,69.54
2022-07-26T09:03:43.481Z,70.27
2022-07-26T09:06:26.315Z,69.35
2022-07-26T09:09:12.578Z,68.25
2022-07-26T09:11:44.012Z,68.52
2022-07-26T09:14:12.310Z,68.73
2022-07-26T09:16:41.542Z,68.29
2022-07-26T09:19:22.894Z,67.46
2022-07-26T09:21:53.594Z,66.64
2022-07-26T09:24:38.709Z,67.99
2022-07-26T09:27:09.737Z,68.33
2022-07-26T09:29:54.986Z,67.49
2022-07-26T09:32:25.922Z,67.52
2022-07-26T09:35:44.121Z,68.08
2022-07-26T09:38:00.068Z,67.87
2022-07-26T09:40:35.431Z,68.26
2022-07-26T09:43:07.324Z,67.73
2022-07-26T09:45:38.369Z,68.11
2022-07-26T09:48:06.700Z,66.95
2022-07-26T09:50:35.043Z,67.09
2022-07-26T09:53:11.780Z,66.36
2022-07-26T09:55:45.735Z,67.38
2022-07-26T09:58:16.663Z,65.82
2022-07-26T10:00:44.809Z,65.71
2022-07-26T10:03:13.418Z,66.73
2022-07-26T10:05:42.090Z,66.56
2022-07-26T10:08:10.690Z,66.67
2022-07-26T10:10:50.926Z,66.23
2022-07-26T10:13:19.367Z,65.74
2022-07-26T10:15:50.145Z,64.28
2022-07-26T10:18:36.490Z,64.62
2022-07-26T10:21:18.775Z,65.44
2022-07-26T10:23:50.328Z,65.54
2022-07-26T10:26:33.862Z,65.71
2022-07-26T10:29:26.686Z,65.18
2022-07-26T10:32:04.017Z,63.41
2022-07-26T10:34:40.292Z,63.22
2022-07-26T10:37:12.587Z,64.80
2022-07-26T10:39:40.919Z,63.52
2022-07-26T10:42:10.956Z,64.06
2022-07-26T10:44:47.927Z,64.89
2022-07-26T10:47:18.840Z,64.20
2022-07-26T10:49:59.836Z,63.38
2022-07-26T10:52:33.028Z,61.92
2022-07-26T10:55:01.511Z,60.46
2022-07-26T10:57:42.094Z,60.87
2022-07-26T11:00:16.405Z,61.38
2022-07-26T11:02:48.909Z,61.89
2022-07-26T11:05:18.967Z,62.77
2022-07-26T11:08:09.374Z,63.37
2022-07-26T11:10:46.637Z,61.83
2022-07-26T11:13:23.930Z,62.81
2022-07-26T11:16:00.405Z,62.71
2022-07-26T11:18:32.812Z,62.82
2022-07-26T11:21:18.762Z,64.24
2022-07-26T11:23:48.479Z,63.01
2022-07-26T11:26:25.880Z,63.37
2022-07-26T11:29:03.999Z,64.28
2022-07-26T11:31:50.803Z,62.79
2022-07-26T11:34:34.367Z,63.50
2022-07-26T11:37:05.356Z,61.34
2022-07-26T11:39:36.185Z,61.37
2022-07-26T11:42:09.207Z,60.84
2022-07-26T11:44:38.327Z,63.33
2022-07-26T11:47:32.593Z,61.09
2022-07-26T11:50:15.296Z,61.16
2022-07-26T11:52:49.904Z,62.06
2022-07-26T11:55:30.437Z,62.00
2022-07-26T11:58:07.056Z,62.21
2022-07-26T12:00:35.558Z,63.08
2022-07-26T12:03:04.377Z,61.37
2022-07-26T12:05:33.749Z,58.71
2022-07-26T12:08:05.244Z,59.24
2022-07-26T12:10:34.331Z,61.25
2022-07-26T12:13:14.602Z,61.16
2022-07-26T12:15:52.163Z,62.22
2022-07-26T12:18:29.517Z,61.46
2022-07-26T12:21:09.324Z,59.94
2022-07-26T12:23:49.414Z,62.81
2022-07-26T12:26:23.937Z,62.79
2022-07-26T12:28:52.741Z,61.35
2022-07-26T12:31:30.757Z,62.25
2022-07-26T12:34:01.188Z,60.93
2022-07-26T12:36:30.438Z,61.75
2022-07-26T12:39:00.751Z,62.19
2022-07-26T12:41:38.692Z,62.38
2022-07-26T12:44:12.747Z,62.75
2022-07-26T12:46:42.005Z,63.08
2022-07-26T12:49:10.501Z,62.08
2022-07-26T12:51:39.053Z,62.05
2022-07-26T12:54:07.676Z,60.81
2022-07-26T12:56:36.513Z,61.49
2022-07-26T12:59:04.806Z,59.05
2022-07-26T13:01:33.091Z,59.08
2022-07-26T13:04:01.421Z,59.57
2022-07-26T13:06:30.072Z,59.75
2022-07-26T13:08:58.366Z,57.85
2022-07-26T13:11:26.691Z,58.77
2022-07-26T13:13:55.957Z,57.28
2022-07-26T13:16:24.322Z,57.05
2022-07-26T13:18:52.632Z,57.53
2022-07-26T13:21:20.879Z,58.96
2022-07-26T13:23:48.764Z,58.38
2022-07-26T13:26:17.038Z,58.06
2022-07-26T13:28:49.712Z,56.45
2022-07-26T13:31:18.772Z,57.95
2022-07-26T13:33:47.209Z,58.61
2022-07-26T13:36:15.402Z,58.41
2022-07-26T13:38:43.604Z,57.64
2022-07-26T13:41:11.803Z,58.42
2022-07-26T13:43:40.209Z,57.44
2022-07-26T13:46:08.633Z,56.75
2022-07-26T13:48:36.903Z,56.91
2022-07-26T13:51:05.347Z,56.48
2022-07-26T13:53:33.950Z,55.43
2022-07-26T13:56:02.038Z,56.49
2022-07-26T13:58:30.455Z,55.12
2022-07-26T14:00:59.001Z,54.92
2022-07-26T14:03:29.771Z,55.63
2022-07-26T14:06:01.724Z,56.67
2022-07-26T14:08:30.078Z,56.18
2022-07-26T14:10:58.328Z,56.19
2022-07-26T14:13:26.174Z,55.62
2022-07-26T14:15:54.550Z,55.93
2022-07-26T14:18:22.837Z,55.73
2022-07-26T14:20:50.744Z,56.15
2022-07-26T14:23:19.010Z,56.62
2022-07-26T14:25:46.816Z,56.47
2022-07-26T14:28:14.764Z,56.46
2022-07-26T14:30:43.165Z,56.77
2022-07-26T14:33:11.429Z,57.29
2022-07-26T14:35:39.814Z,56.56
2022-07-26T14:38:08.460Z,57.57
2022-07-26T14:40:36.953Z,57.26
2022-07-26T14:43:05.146Z,57.99
2022-07-26T14:45:33.435Z,58.73
2022-07-26T14:48:01.693Z,57.78
2022-07-26T14:50:42.454Z,58.54
2022-07-26T14:53:19.316Z,58.77
2022-07-26T14:55:47.891Z,58.67
2022-07-26T14:58:16.082Z,58.62
2022-07-26T15:00:44.713Z,58.99
2022-07-26T15:03:13.017Z,58.62
2022-07-26T15:05:41.298Z,56.53
2022-07-26T15:08:10.401Z,57.67
2022-07-26T15:10:38.700Z,57.64
2022-07-26T15:13:09.234Z,56.99
2022-07-26T15:15:37.626Z,57.75
2022-07-26T15:18:05.967Z,58.97
2022-07-26T15:20:34.401Z,59.68
2022-07-26T15:23:02.642Z,59.19
2022-07-26T15:25:30.853Z,58.99
2022-07-26T15:27:59.042Z,59.97
2022-07-26T15:30:27.539Z,59.27
2022-07-26T15:32:56.756Z,59.17
2022-07-26T15:35:24.993Z,57.98
2022-07-26T15:37:53.667Z,59.21
2022-07-26T15:40:22.036Z,57.87
2022-07-26T15:42:53.070Z,58.07
2022-07-26T15:45:22.317Z,58.32
2022-07-26T15:48:13.761Z,58.05
2022-07-26T15:50:44.571Z,56.80
2022-07-26T15:53:16.712Z,57.95
2022-07-26T15:55:44.984Z,57.18
2022-07-26T15:58:13.491Z,55.29
2022-07-26T16:00:42.883Z,54.98
2022-07-26T16:03:12.440Z,54.98
2022-07-26T16:05:44.174Z,54.58
2022-07-26T16:08:15.392Z,55.08
2022-07-26T16:10:43.802Z,55.16
2022-07-26T16:13:12.860Z,56.85
2022-07-26T16:15:41.172Z,56.10
2022-07-26T16:18:09.389Z,55.30
2022-07-26T16:20:37.597Z,54.54
2022-07-26T16:23:05.791Z,57.92
2022-07-26T16:25:33.912Z,53.47
2022-07-26T16:28:02.107Z,55.64
2022-07-26T16:30:30.024Z,54.46
2022-07-26T16:32:58.068Z,55.51
2022-07-26T16:35:26.462Z,55.29
2022-07-26T16:37:54.687Z,55.42
2022-07-26T16:40:23.070Z,55.55
2022-07-26T16:42:50.973Z,56.27
2022-07-26T16:45:18.938Z,55.89
2022-07-26T16:47:46.962Z,56.10
2022-07-26T16:50:14.947Z,54.47
2022-07-26T16:52:55.791Z,54.45
2022-07-26T16:55:23.679Z,54.72
2022-07-26T16:57:52.011Z,54.28
2022-07-26T17:00:22.189Z,53.63
2022-07-26T17:02:51.014Z,53.62
2022-07-26T17:05:19.255Z,53.55
2022-07-26T17:07:47.178Z,52.94
2022-07-26T17:10:15.119Z,54.02
2022-07-26T17:12:43.612Z,54.80
2022-07-26T17:15:12.550Z,55.61
2022-07-26T17:17:42.930Z,55.67
2022-07-26T17:20:13.844Z,54.92
2022-07-26T17:22:42.201Z,55.52
2022-07-26T17:25:29.183Z,54.79
2022-07-26T17:27:57.013Z,54.57
2022-07-26T17:30:25.588Z,54.46
2022-07-26T17:32:53.901Z,54.77
2022-07-26T17:35:22.172Z,58.99
2022-07-26T17:37:50.516Z,57.04
2022-07-26T17:40:18.772Z,57.24
2022-07-26T17:42:46.936Z,57.86
2022-07-26T17:45:15.119Z,59.71
2022-07-26T17:47:43.147Z,58.49
2022-07-26T17:50:36.397Z,60.02
2022-07-26T17:53:00.153Z,57.12
2022-07-26T17:55:28.538Z,59.59
2022-07-26T17:57:56.765Z,60.04
2022-07-26T18:00:26.980Z,59.40
2022-07-26T18:02:58.017Z,60.78
2022-07-26T18:05:33.992Z,60.61
2022-07-26T18:08:04.414Z,60.20
2022-07-26T18:10:32.840Z,61.71
2022-07-26T18:13:01.083Z,60.56
2022-07-26T18:15:29.374Z,61.88
2022-07-26T18:17:57.712Z,62.53
2022-07-26T18:20:26.024Z,61.14
2022-07-26T18:22:55.043Z,63.35
2022-07-26T18:25:22.918Z,62.09
2022-07-26T18:27:53.922Z,60.90
2022-07-26T18:30:22.318Z,61.60
2022-07-26T18:32:50.755Z,61.95
2022-07-26T18:35:19.045Z,62.62
2022-07-26T18:37:46.870Z,61.08
2022-07-26T18:40:15.389Z,61.29
2022-07-26T18:42:43.618Z,64.53
2022-07-26T18:45:11.997Z,63.38
2022-07-26T18:47:41.913Z,63.97
2022-07-26T18:50:12.029Z,64.36
2022-07-26T18:52:44.700Z,64.30
2022-07-26T18:55:14.851Z,64.92
2022-07-26T18:57:44.599Z,64.98
2022-07-26T19:00:17.134Z,65.07
2022-07-26T19:02:46.770Z,64.20
2022-07-26T19:05:16.593Z,65.11
2022-07-26T19:07:46.320Z,64.89
2022-07-26T19:10:14.522Z,64.03
2022-07-26T19:12:45.335Z,65.05
2022-07-26T19:15:16.333Z,67.29
2022-07-26T19:17:44.782Z,68.02
2022-07-26T19:20:13.739Z,67.89
2022-07-26T19:22:44.655Z,68.15
2022-07-26T19:25:14.698Z,68.50
2022-07-26T19:27:43.200Z,68.74
2022-07-26T19:30:12.443Z,69.41
2022-07-26T19:32:40.914Z,68.09
2022-07-26T19:35:09.620Z,67.30
2022-07-26T19:37:37.920Z,66.93
2022-07-26T19:40:06.908Z,67.88
2022-07-26T19:42:35.285Z,68.77
2022-07-26T19:45:03.649Z,69.36
2022-07-26T19:47:31.872Z,68.96
2022-07-26T19:50:00.176Z,70.23
2022-07-26T19:52:28.907Z,70.28
2022-07-26T19:54:57.227Z,70.28
2022-07-26T19:57:25.539Z,70.70
2022-07-26T19:59:54.499Z,70.92
2022-07-26T20:02:23.214Z,71.56
2022-07-26T20:04:51.457Z,71.50
2022-07-26T20:07:19.955Z,72.61
2022-07-26T20:09:49.635Z,72.20
2022-07-26T20:12:19.045Z,73.47
2022-07-26T20:14:47.558Z,74.28
2022-07-26T20:17:16.145Z,75.02
2022-07-26T20:19:44.489Z,75.17
2022-07-26T20:22:12.667Z,75.82
2022-07-26T20:24:40.838Z,76.72
2022-07-26T20:27:09.221Z,76.20
2022-07-26T20:29:37.622Z,75.95
2022-07-26T20:32:06.214Z,76.66
2022-07-26T20:34:35.089Z,77.16
2022-07-26T20:37:03.412Z,77.73
2022-07-26T20:39:31.699Z,78.32
2022-07-26T20:42:00.900Z,78.11
2022-07-26T20:44:29.998Z,79.08
2022-07-26T20:46:58.459Z,79.35
2022-07-26T20:49:26.740Z,78.87
2022-07-26T20:51:55.073Z,78.95
2022-07-26T20:54:23.354Z,79.82
2022-07-26T20:56:51.629Z,80.15
2022-07-26T20:59:20.018Z,81.58
2022-07-26T21:01:48.565Z,81.13
2022-07-26T21:04:17.233Z,81.76
2022-07-26T21:06:45.431Z,82.11
2022-07-26T21:09:15.313Z,81.83
2022-07-26T21:11:43.830Z,82.47
2022-07-26T21:14:12.282Z,83.04
2022-07-26T21:16:40.533Z,82.73
2022-07-26T21:19:08.943Z,83.31
2022-07-26T21:21:38.279Z,83.08
2022-07-26T21:24:07.437Z,83.85
2022-07-26T21:26:35.889Z,83.54
2022-07-26T21:29:04.555Z,83.68
2022-07-26T21:31:32.823Z,84.46
2022-07-26T21:34:01.061Z,84.04
2022-07-26T21:36:29.331Z,84.54
2022-07-26T21:38:59.405Z,84.93
2022-07-26T21:41:27.629Z,85.39
2022-07-26T21:43:55.851Z,85.40
2022-07-26T21:46:24.190Z,84.92
2022-07-26T21:48:52.484Z,84.77
2022-07-26T21:51:20.819Z,84.86
2022-07-26T21:53:49.322Z,85.04
2022-07-26T21:56:17.630Z,85.68
2022-07-26T21:58:46.882Z,86.22
2022-07-26T22:01:15.514Z,86.10
2022-07-26T22:03:44.065Z,86.70
2022-07-26T22:06:13.113Z,86.84
2022-07-26T22:08:41.299Z,86.67
2022-07-26T22:11:09.955Z,86.92
2022-07-26T22:13:38.717Z,86.92
2022-07-26T22:16:07.357Z,87.14
2022-07-26T22:18:35.722Z,87.62
2022-07-26T22:21:04.154Z,87.90
2022-07-26T22:23:32.558Z,87.64
2022-07-26T22:26:04.125Z,88.34
2022-07-26T22:28:34.552Z,88.43
2022-07-26T22:31:03.183Z,88.89
2022-07-26T22:33:31.400Z,88.81
2022-07-26T22:35:59.712Z,88.91
2022-07-26T22:38:27.875Z,89.34
2022-07-26T22:40:56.112Z,89.72
2022-07-26T22:43:24.330Z,90.13
2022-07-26T22:45:52.622Z,90.52
2022-07-26T22:48:20.850Z,90.63
2022-07-26T22:50:49.062Z,91.16
2022-07-26T22:53:17.261Z,91.19
2022-07-26T22:55:45.600Z,91.56
2022-07-26T22:58:13.810Z,92.05
2022-07-26T23:00:42.098Z,92.23
2022-07-26T23:03:19.923Z,92.57
2022-07-26T23:05:50.421Z,93.58
2022-07-26T23:11:08.942Z,93.45
2022-07-26T23:13:37.341Z,93.59
2022-07-26T23:16:06.030Z,93.76
2022-07-26T23:18:35.156Z,94.88
2022-07-26T23:21:04.297Z,95.45
2022-07-26T23:23:32.826Z,95.40
2022-07-26T23:26:01.266Z,95.39
2022-07-26T23:28:37.548Z,95.10
2022-07-26T23:31:11.471Z,95.74
2022-07-26T23:33:50.604Z,95.84
2022-07-26T23:36:28.159Z,95.79
2022-07-26T23:38:58.793Z,96.04
2022-07-26T23:41:27.756Z,96.08
2022-07-26T23:43:56.298Z,96.21
2022-07-26T23:46:25.003Z,96.39
2022-07-26T23:48:53.829Z,96.44
2022-07-26T23:51:23.185Z,96.30
2022-07-26T23:53:52.115Z,96.32
2022-07-26T23:56:20.383Z,96.46
2022-07-26T23:58:48.700Z,96.62
